createdAt,value
2018-05-10T00:01:33.990Z,10.40
2018-05-10T00:04:02.074Z,10.20
2018-05-10T00:06:30.124Z,9.70
2018-05-10T00:08:58.218Z,9.87
2018-05-10T00:11:26.297Z,9.73
2018-05-10T00:13:55.186Z,9.23
2018-05-10T00:16:24.385Z,9.77
2018-05-10T00:18:53.220Z,12.00
2018-05-10T00:21:21.291Z,9.20
2018-05-10T00:23:50.533Z,8.77
2018-05-10T00:26:18.614Z,11.27
2018-05-10T00:28:47.453Z,10.60
2018-05-10T00:31:15.569Z,10.00
2018-05-10T00:33:43.609Z,10.53
2018-05-10T00:36:11.681Z,10.80
2018-05-10T00:38:40.299Z,10.57
2018-05-10T00:41:08.349Z,10.70
2018-05-10T00:43:36.408Z,11.70
2018-05-10T00:46:04.789Z,10.67
2018-05-10T00:48:33.861Z,12.80
2018-05-10T00:51:01.965Z,11.13
2018-05-10T00:53:30.540Z,9.87
2018-05-10T00:55:58.637Z,9.63
2018-05-10T00:58:26.673Z,9.90
2018-05-10T01:00:54.975Z,11.80
2018-05-10T01:03:23.046Z,10.40
2018-05-10T01:05:52.053Z,10.23
2018-05-10T01:08:20.889Z,9.77
2018-05-10T01:10:49.017Z,10.60
2018-05-10T01:13:17.381Z,10.83
2018-05-10T01:15:46.230Z,9.63
2018-05-10T01:18:14.304Z,10.53
2018-05-10T01:20:42.368Z,9.30
2018-05-10T01:23:10.474Z,9.23
2018-05-10T01:25:38.568Z,9.30
2018-05-10T01:28:06.969Z,10.37
2018-05-10T01:30:36.032Z,10.13
2018-05-10T01:33:04.086Z,9.77
2018-05-10T01:35:32.483Z,11.90
2018-05-10T01:38:00.566Z,10.53
2018-05-10T01:40:29.416Z,11.13
2018-05-10T01:42:57.481Z,10.43
2018-05-10T01:45:25.540Z,11.10
2018-05-10T01:47:53.637Z,10.40
2018-05-10T01:50:21.938Z,9.73
2018-05-10T01:52:50.006Z,12.00
2018-05-10T01:55:18.261Z,11.57
2018-05-10T01:57:46.365Z,10.70
2018-05-10T02:00:15.225Z,9.60
2018-05-10T02:02:43.280Z,11.07
2018-05-10T02:05:11.404Z,11.67
2018-05-10T02:07:40.418Z,11.60
2018-05-10T02:10:08.517Z,12.67
2018-05-10T02:12:36.842Z,12.10
2018-05-10T02:15:04.881Z,11.63
2018-05-10T02:17:32.940Z,11.80
2018-05-10T02:20:01.261Z,13.27
2018-05-10T02:22:30.096Z,10.87
2018-05-10T02:24:58.193Z,12.07
2018-05-10T02:27:26.542Z,13.97
2018-05-10T02:29:54.625Z,10.77
2018-05-10T02:32:22.690Z,12.50
2018-05-10T02:34:51.021Z,12.10
2018-05-10T02:37:19.096Z,10.70
2018-05-10T02:39:47.923Z,12.13
2018-05-10T02:42:16.354Z,12.07
2018-05-10T02:44:44.605Z,11.00
2018-05-10T02:47:12.706Z,11.03
2018-05-10T02:49:41.080Z,10.33
2018-05-10T02:52:09.173Z,12.97
2018-05-10T02:54:37.990Z,10.93
2018-05-10T02:57:06.077Z,12.27
2018-05-10T02:59:34.141Z,11.47
2018-05-10T03:02:02.216Z,11.90
2018-05-10T03:04:30.327Z,11.07
2018-05-10T03:06:58.377Z,12.03
2018-05-10T03:09:26.865Z,10.70
2018-05-10T03:11:55.266Z,11.67
2018-05-10T03:14:23.337Z,11.93
2018-05-10T03:16:52.202Z,10.67
2018-05-10T03:19:20.567Z,10.90
2018-05-10T03:21:48.653Z,11.33
2018-05-10T03:24:16.704Z,12.13
2018-05-10T03:26:44.780Z,11.13
2018-05-10T03:29:12.836Z,10.60
2018-05-10T03:31:40.904Z,10.60
2018-05-10T03:34:09.325Z,10.37
2018-05-10T03:36:37.400Z,13.63
2018-05-10T03:39:05.461Z,13.53
2018-05-10T03:41:33.745Z,12.80
2018-05-10T03:44:01.833Z,13.20
2018-05-10T03:46:29.934Z,10.23
2018-05-10T03:48:57.958Z,15.00
2018-05-10T03:51:26.017Z,12.13
2018-05-10T03:53:54.112Z,13.20
2018-05-10T03:56:22.498Z,12.03
2018-05-10T03:58:51.545Z,12.33
2018-05-10T04:01:19.664Z,13.57
2018-05-10T04:03:48.120Z,12.20
2018-05-10T04:06:16.223Z,14.10
2018-05-10T04:08:45.065Z,11.97
2018-05-10T04:11:14.196Z,13.50
2018-05-10T04:13:42.240Z,12.37
2018-05-10T04:16:10.355Z,14.23
2018-05-10T04:18:39.504Z,11.47
2018-05-10T04:21:07.572Z,12.33
2018-05-10T04:23:35.648Z,12.17
2018-05-10T04:26:03.951Z,12.73
2018-05-10T04:28:32.037Z,12.07
2018-05-10T04:31:00.890Z,10.67
2018-05-10T04:33:29.276Z,10.17
2018-05-10T04:35:57.386Z,11.07
2018-05-10T04:38:26.233Z,11.83
2018-05-10T04:40:54.341Z,11.20
2018-05-10T04:43:23.209Z,12.80
2018-05-10T04:45:51.287Z,11.70
2018-05-10T04:48:19.429Z,11.73
2018-05-10T04:50:47.541Z,13.57
2018-05-10T04:53:15.581Z,10.53
2018-05-10T04:55:43.957Z,10.93
2018-05-10T04:58:12.027Z,10.77
2018-05-10T05:00:40.139Z,10.70
2018-05-10T05:03:08.196Z,11.43
2018-05-10T05:05:37.045Z,11.67
2018-05-10T05:08:05.110Z,10.07
2018-05-10T05:10:33.241Z,10.90
2018-05-10T05:13:01.589Z,11.13
2018-05-10T05:15:29.677Z,10.93
2018-05-10T05:17:58.025Z,10.33
2018-05-10T05:20:26.109Z,10.37
2018-05-10T05:22:54.255Z,10.77
2018-05-10T05:25:22.604Z,10.67
2018-05-10T05:27:51.477Z,12.30
2018-05-10T05:30:19.559Z,13.17
2018-05-10T05:32:48.022Z,11.90
2018-05-10T05:35:16.800Z,15.17
2018-05-10T05:37:45.038Z,12.97
2018-05-10T05:40:13.759Z,10.80
2018-05-10T05:42:41.841Z,11.73
2018-05-10T05:45:10.704Z,11.67
2018-05-10T05:47:38.802Z,13.17
2018-05-10T05:50:06.901Z,17.37
2018-05-10T05:52:35.252Z,13.83
2018-05-10T05:55:03.407Z,13.43
2018-05-10T05:57:31.377Z,12.90
2018-05-10T05:59:59.491Z,13.47
2018-05-10T06:02:28.345Z,12.40
2018-05-10T06:04:56.412Z,13.23
2018-05-10T06:07:24.881Z,14.77
2018-05-10T06:09:53.172Z,12.63
2018-05-10T06:12:21.229Z,13.23
2018-05-10T06:14:49.317Z,14.50
2018-05-10T06:17:17.382Z,12.73
2018-05-10T06:19:45.494Z,13.57
2018-05-10T06:22:14.681Z,14.27
2018-05-10T06:24:42.791Z,12.93
2018-05-10T06:27:10.879Z,12.03
2018-05-10T06:29:39.405Z,13.50
2018-05-10T06:32:07.458Z,13.17
2018-05-10T06:34:35.729Z,14.05
2018-05-10T06:37:04.816Z,13.60
2018-05-10T06:39:32.968Z,14.03
2018-05-10T06:42:01.045Z,14.00
2018-05-10T06:44:29.128Z,12.90
2018-05-10T06:46:57.231Z,15.70
2018-05-10T06:49:25.329Z,13.35
2018-05-10T06:51:53.433Z,13.37
2018-05-10T06:54:21.532Z,14.17
2018-05-10T06:56:49.589Z,13.57
2018-05-10T06:59:17.717Z,16.95
2018-05-10T07:01:46.665Z,14.48
2018-05-10T07:04:14.748Z,16.40
2018-05-10T07:06:43.102Z,12.13
2018-05-10T07:09:11.213Z,14.20
2018-05-10T07:11:39.437Z,14.40
2018-05-10T07:14:07.871Z,13.13
2018-05-10T07:16:35.958Z,13.20
2018-05-10T07:19:04.777Z,12.07
2018-05-10T07:21:33.096Z,14.73
2018-05-10T07:24:01.149Z,15.90
2018-05-10T07:26:29.325Z,17.75
2018-05-10T07:28:57.729Z,16.17
2018-05-10T07:31:25.773Z,15.20
2018-05-10T07:33:53.844Z,16.52
2018-05-10T07:36:21.945Z,17.48
2018-05-10T07:38:51.429Z,18.20
2018-05-10T07:41:19.485Z,20.08
2018-05-10T07:43:47.761Z,19.10
2018-05-10T07:46:15.885Z,22.65
2018-05-10T07:48:44.729Z,19.73
2018-05-10T07:51:13.037Z,23.20
2018-05-10T07:53:41.893Z,22.48
2018-05-10T07:56:09.985Z,23.27
2018-05-10T07:58:38.061Z,20.55
2018-05-10T08:01:06.116Z,20.62
2018-05-10T08:03:34.185Z,21.70
2018-05-10T08:06:02.765Z,20.80
2018-05-10T08:08:30.868Z,20.10
2018-05-10T08:10:59.760Z,20.48
2018-05-10T08:13:28.655Z,24.73
2018-05-10T08:15:57.539Z,21.65
2018-05-10T08:18:25.612Z,20.98
2018-05-10T08:20:53.747Z,19.70
2018-05-10T08:23:21.804Z,21.65
2018-05-10T08:25:49.901Z,24.25
2018-05-10T08:28:18.369Z,22.87
2018-05-10T08:30:46.481Z,20.23
2018-05-10T08:33:14.553Z,21.25
2018-05-10T08:35:42.643Z,21.33
2018-05-10T08:38:11.329Z,23.58
2018-05-10T08:40:40.205Z,26.20
2018-05-10T08:43:09.917Z,23.77
2018-05-10T08:45:38.744Z,19.52
2018-05-10T08:48:06.837Z,23.10
2018-05-10T08:50:34.916Z,20.08
2018-05-10T08:53:03.019Z,20.50
2018-05-10T08:55:31.890Z,20.98
2018-05-10T08:57:59.968Z,20.73
2018-05-10T09:00:28.821Z,23.48
2018-05-10T09:02:56.912Z,22.35
2018-05-10T09:05:25.505Z,21.98
2018-05-10T09:07:54.063Z,20.55
2018-05-10T09:10:22.135Z,20.67
2018-05-10T09:12:50.267Z,19.20
2018-05-10T09:15:19.079Z,20.08
2018-05-10T09:17:47.184Z,20.42
2018-05-10T09:20:15.265Z,19.45
2018-05-10T09:22:43.321Z,20.05
2018-05-10T09:25:11.392Z,20.83
2018-05-10T09:27:39.768Z,21.10
2018-05-10T09:30:08.765Z,22.92
2018-05-10T09:32:36.834Z,22.40
2018-05-10T09:35:04.906Z,23.27
2018-05-10T09:37:33.340Z,25.45
2018-05-10T09:40:02.205Z,26.90
2018-05-10T09:42:30.257Z,27.83
2018-05-10T09:44:58.457Z,27.55
2018-05-10T09:47:26.525Z,26.30
2018-05-10T09:49:55.372Z,26.73
2018-05-10T09:52:23.872Z,28.52
2018-05-10T09:54:51.962Z,29.77
2018-05-10T09:57:20.016Z,32.35
2018-05-10T09:59:48.365Z,32.60
2018-05-10T10:02:16.467Z,31.90
2018-05-10T10:04:44.549Z,31.80
2018-05-10T10:07:12.633Z,31.53
2018-05-10T10:09:40.689Z,34.67
2018-05-10T10:12:08.765Z,38.05
2018-05-10T10:14:36.844Z,33.57
2018-05-10T10:17:05.713Z,33.03
2018-05-10T10:19:33.778Z,33.55
2018-05-10T10:22:01.869Z,35.20
2018-05-10T10:24:29.956Z,29.52
2018-05-10T10:26:58.788Z,28.98
2018-05-10T10:29:27.205Z,31.85
2018-05-10T10:31:55.361Z,29.58
2018-05-10T10:34:23.533Z,30.35
2018-05-10T10:36:51.936Z,30.55
2018-05-10T10:39:19.985Z,27.20
2018-05-10T10:41:48.073Z,30.27
2018-05-10T10:44:16.324Z,32.53
2018-05-10T10:46:44.421Z,32.35
2018-05-10T10:49:12.482Z,30.30
2018-05-10T10:51:40.897Z,33.00
2018-05-10T10:54:09.752Z,29.55
2018-05-10T10:56:37.804Z,28.55
2018-05-10T10:59:06.109Z,28.62
2018-05-10T11:01:34.209Z,31.90
2018-05-10T11:04:03.057Z,29.67
2018-05-10T11:06:31.183Z,30.45
2018-05-10T11:08:59.302Z,27.70
2018-05-10T11:11:27.389Z,33.70
2018-05-10T11:13:55.765Z,29.05
2018-05-10T11:16:23.856Z,32.28
2018-05-10T11:18:52.717Z,30.83
2018-05-10T11:21:20.832Z,37.00
2018-05-10T11:23:49.689Z,35.60
2018-05-10T11:26:17.777Z,32.28
2018-05-10T11:28:46.628Z,36.95
2018-05-10T11:31:14.697Z,36.90
2018-05-10T11:33:42.863Z,33.93
2018-05-10T11:36:11.280Z,35.00
2018-05-10T11:38:39.335Z,34.80
2018-05-10T11:41:07.433Z,32.70
2018-05-10T11:43:35.978Z,25.13
2018-05-10T11:46:04.072Z,24.47
2018-05-10T11:48:32.153Z,26.80
2018-05-10T11:51:00.204Z,26.63
2018-05-10T11:53:28.301Z,31.83
2018-05-10T11:55:56.341Z,28.50
2018-05-10T11:58:24.961Z,31.10
2018-05-10T12:00:53.038Z,29.67
2018-05-10T12:03:21.918Z,32.03
2018-05-10T12:05:50.285Z,28.67
2018-05-10T12:08:19.877Z,34.50
2018-05-10T12:10:47.977Z,39.20
2018-05-10T12:13:17.161Z,39.97
2018-05-10T12:15:45.220Z,36.80
2018-05-10T12:18:13.304Z,36.97
2018-05-10T12:20:41.401Z,38.53
2018-05-10T12:23:10.328Z,53.83
2018-05-10T12:25:38.491Z,41.20
2018-05-10T12:28:07.037Z,43.57
2018-05-10T12:30:35.113Z,48.67
2018-05-10T12:33:03.945Z,46.57
2018-05-10T12:35:32.480Z,44.37
2018-05-10T12:38:01.320Z,43.30
2018-05-10T12:40:29.413Z,47.73
2018-05-10T12:42:57.809Z,45.10
2018-05-10T12:45:25.865Z,42.80
2018-05-10T12:47:54.165Z,43.30
2018-05-10T12:50:22.721Z,40.83
2018-05-10T12:52:50.822Z,35.50
2018-05-10T12:55:18.921Z,27.20
2018-05-10T12:57:46.989Z,17.83
2018-05-10T13:00:15.041Z,15.63
2018-05-10T13:02:43.986Z,11.60
2018-05-10T13:05:13.509Z,9.83
2018-05-10T13:07:41.573Z,8.20
2018-05-10T13:10:09.645Z,9.03
2018-05-10T13:12:38.353Z,9.70
2018-05-10T13:15:06.439Z,11.17
2018-05-10T13:17:35.281Z,8.80
2018-05-10T13:20:03.381Z,9.60
2018-05-10T13:22:31.469Z,10.90
2018-05-10T13:25:00.370Z,9.53
2018-05-10T13:27:29.225Z,10.67
2018-05-10T13:29:57.325Z,10.17
2018-05-10T13:32:26.168Z,13.40
2018-05-10T13:34:54.572Z,12.70
2018-05-10T13:37:22.765Z,13.77
2018-05-10T13:39:50.835Z,15.00
2018-05-10T13:42:19.218Z,12.93
2018-05-10T13:44:48.813Z,12.37
2018-05-10T13:47:16.976Z,17.00
2018-05-10T13:49:44.981Z,16.93
2018-05-10T13:52:13.853Z,14.97
2018-05-10T13:54:41.902Z,15.70
2018-05-10T13:57:10.181Z,15.20
2018-05-10T13:59:38.284Z,14.07
2018-05-10T14:02:07.137Z,12.90
2018-05-10T14:04:35.287Z,13.77
2018-05-10T14:07:04.075Z,11.33
2018-05-10T14:09:32.174Z,13.13
2018-05-10T14:12:00.626Z,9.70
2018-05-10T14:14:28.661Z,9.93
2018-05-10T14:16:58.109Z,11.67
2018-05-10T14:19:26.227Z,10.13
2018-05-10T14:21:54.303Z,8.18
2018-05-10T14:24:23.485Z,6.80
2018-05-10T14:26:51.548Z,6.68
2018-05-10T14:29:19.601Z,5.75
2018-05-10T14:31:47.709Z,6.15
2018-05-10T14:34:16.539Z,8.70
2018-05-10T14:36:44.642Z,5.00
2018-05-10T14:39:13.097Z,4.85
2018-05-10T14:41:41.297Z,6.00
2018-05-10T14:44:10.133Z,4.78
2018-05-10T14:46:38.609Z,8.40
2018-05-10T14:49:06.629Z,4.53
2018-05-10T14:51:34.680Z,7.40
2018-05-10T14:54:03.167Z,4.60
2018-05-10T14:56:31.142Z,9.05
2018-05-10T14:58:59.199Z,5.43
2018-05-10T15:01:27.648Z,4.75
2018-05-10T15:03:57.504Z,3.03
2018-05-10T15:06:25.593Z,3.50
2018-05-10T15:08:53.679Z,4.65
2018-05-10T15:11:22.282Z,3.67
2018-05-10T15:13:51.174Z,7.32
2018-05-10T15:16:20.010Z,3.45
2018-05-10T15:18:48.114Z,6.22
2018-05-10T15:21:16.185Z,5.28
2018-05-10T15:23:44.320Z,5.78
2018-05-10T15:26:12.350Z,6.62
2018-05-10T15:28:41.963Z,4.53
2018-05-10T15:31:11.566Z,4.97
2018-05-10T15:33:40.423Z,6.20
2018-05-10T15:36:08.521Z,5.05
2018-05-10T15:38:36.568Z,9.75
2018-05-10T15:41:04.650Z,4.03
2018-05-10T15:43:32.714Z,4.72
2018-05-10T15:46:01.030Z,12.20
2018-05-10T15:48:29.849Z,7.37
2018-05-10T15:50:57.944Z,6.65
2018-05-10T15:53:26.340Z,4.33
2018-05-10T15:55:54.480Z,5.45
2018-05-10T15:58:22.569Z,4.97
2018-05-10T16:00:50.673Z,5.77
2018-05-10T16:03:18.712Z,5.90
2018-05-10T16:05:46.798Z,5.78
2018-05-10T16:08:14.890Z,4.37
2018-05-10T16:10:43.720Z,6.40
2018-05-10T16:13:11.801Z,4.95
2018-05-10T16:15:40.401Z,6.35
2018-05-10T16:18:08.456Z,3.97
2018-05-10T16:20:36.525Z,5.93
2018-05-10T16:23:04.616Z,9.02
2018-05-10T16:25:32.672Z,4.40
2018-05-10T16:28:00.788Z,4.82
2018-05-10T16:30:29.681Z,6.47
2018-05-10T16:32:58.622Z,5.78
2018-05-10T16:35:26.721Z,3.90
2018-05-10T16:37:55.022Z,5.30
2018-05-10T16:40:23.888Z,6.33
2018-05-10T16:42:51.949Z,6.70
2018-05-10T16:45:20.473Z,4.07
2018-05-10T16:47:49.465Z,3.43
2018-05-10T16:50:17.502Z,5.90
2018-05-10T16:52:45.573Z,5.82
2018-05-10T16:55:13.645Z,5.27
2018-05-10T16:57:41.999Z,6.30
2018-05-10T17:00:10.421Z,4.77
2018-05-10T17:02:38.496Z,4.20
2018-05-10T17:05:06.577Z,4.73
2018-05-10T17:07:35.718Z,4.57
2018-05-10T17:10:03.935Z,5.00
2018-05-10T17:12:32.017Z,6.33
2018-05-10T17:15:01.217Z,6.43
2018-05-10T17:17:30.060Z,4.93
2018-05-10T17:19:58.133Z,6.43
2018-05-10T17:22:26.536Z,7.12
2018-05-10T17:24:54.618Z,5.43
2018-05-10T17:27:23.510Z,3.95
2018-05-10T17:29:51.550Z,5.93
2018-05-10T17:32:19.649Z,6.15
2018-05-10T17:34:48.029Z,3.27
2018-05-10T17:37:17.116Z,4.47
2018-05-10T17:39:45.193Z,4.30
2018-05-10T17:42:14.050Z,4.47
2018-05-10T17:44:42.377Z,4.23
2018-05-10T17:47:11.221Z,5.27
2018-05-10T17:49:39.345Z,5.90
2018-05-10T17:52:08.221Z,4.87
2018-05-10T17:54:36.298Z,5.40
2018-05-10T17:57:05.131Z,3.17
2018-05-10T17:59:33.456Z,5.73
2018-05-10T18:02:01.697Z,4.30
2018-05-10T18:04:29.777Z,6.90
2018-05-10T18:06:57.901Z,6.43
2018-05-10T18:09:26.714Z,3.73
2018-05-10T18:11:54.778Z,4.73
2018-05-10T18:14:23.595Z,4.53
2018-05-10T18:16:51.682Z,6.30
2018-05-10T18:19:19.744Z,5.77
2018-05-10T18:21:48.146Z,6.80
2018-05-10T18:24:16.217Z,7.10
2018-05-10T18:26:45.109Z,7.47
2018-05-10T18:29:14.737Z,6.53
2018-05-10T18:31:44.385Z,7.27
2018-05-10T18:34:12.454Z,5.63
2018-05-10T18:36:40.537Z,6.80
2018-05-10T18:39:09.546Z,9.23
2018-05-10T18:41:37.925Z,7.47
2018-05-10T18:44:07.523Z,6.27
2018-05-10T18:46:35.602Z,6.20
2018-05-10T18:49:03.674Z,6.00
2018-05-10T18:51:31.783Z,7.63
2018-05-10T18:54:00.605Z,6.60
2018-05-10T18:56:28.753Z,5.17
2018-05-10T18:58:57.613Z,5.37
2018-05-10T19:01:25.691Z,5.57
2018-05-10T19:03:55.253Z,6.37
2018-05-10T19:06:23.350Z,7.83
2018-05-10T19:08:51.417Z,8.40
2018-05-10T19:11:19.809Z,7.40
2018-05-10T19:13:48.647Z,5.07
2018-05-10T19:16:16.722Z,6.67
2018-05-10T19:18:44.843Z,10.57
2018-05-10T19:21:14.429Z,8.83
2018-05-10T19:23:42.511Z,8.10
2018-05-10T19:26:11.073Z,9.30
2018-05-10T19:28:39.165Z,8.63
2018-05-10T19:31:07.217Z,7.17
2018-05-10T19:33:35.309Z,7.10
2018-05-10T19:36:03.361Z,8.33
2018-05-10T19:38:31.429Z,9.57
2018-05-10T19:40:59.532Z,12.17
2018-05-10T19:43:27.635Z,6.03
2018-05-10T19:45:55.730Z,6.33
2018-05-10T19:48:24.033Z,7.47
2018-05-10T19:50:52.117Z,7.23
2018-05-10T19:53:20.365Z,5.60
2018-05-10T19:55:48.437Z,7.40
2018-05-10T19:58:16.521Z,8.33
2018-05-10T20:00:44.605Z,7.37
2018-05-10T20:03:12.714Z,8.40
2018-05-10T20:05:41.739Z,11.13
2018-05-10T20:08:09.833Z,8.73
2018-05-10T20:10:38.125Z,8.33
2018-05-10T20:13:06.172Z,9.57
2018-05-10T20:15:34.250Z,7.93
2018-05-10T20:18:02.411Z,10.80
2018-05-10T20:20:30.505Z,8.77
2018-05-10T20:22:58.565Z,10.07
2018-05-10T20:25:26.645Z,4.50
2018-05-10T20:27:54.698Z,5.30
2018-05-10T20:30:22.769Z,8.60
2018-05-10T20:32:50.885Z,6.20
2018-05-10T20:35:19.734Z,6.93
2018-05-10T20:37:47.802Z,6.80
2018-05-10T20:40:16.186Z,7.27
2018-05-10T20:42:44.261Z,5.40
2018-05-10T20:45:12.349Z,5.33
2018-05-10T20:47:40.925Z,7.77
2018-05-10T20:50:09.005Z,8.70
2018-05-10T20:52:37.089Z,7.23
2018-05-10T20:55:05.305Z,8.93
2018-05-10T20:57:33.337Z,6.80
2018-05-10T21:00:02.193Z,7.17
2018-05-10T21:02:30.903Z,6.90
2018-05-10T21:04:58.973Z,7.33
2018-05-10T21:07:27.029Z,5.70
2018-05-10T21:09:55.190Z,6.10
2018-05-10T21:12:23.197Z,10.17
2018-05-10T21:14:51.277Z,3.73
2018-05-10T21:17:20.362Z,5.63
2018-05-10T21:19:48.412Z,7.20
2018-05-10T21:22:16.493Z,5.70
2018-05-10T21:24:44.589Z,7.40
2018-05-10T21:27:13.418Z,7.80
2018-05-10T21:29:41.487Z,4.53
2018-05-10T21:32:09.611Z,6.47
2018-05-10T21:34:37.656Z,4.33
2018-05-10T21:37:05.753Z,6.03
2018-05-10T21:39:33.800Z,6.77
2018-05-10T21:42:01.878Z,6.20
2018-05-10T21:44:29.945Z,8.30
2018-05-10T21:46:58.304Z,7.40
2018-05-10T21:49:26.406Z,6.97
2018-05-10T21:51:54.665Z,7.03
2018-05-10T21:54:23.029Z,5.13
2018-05-10T21:56:51.105Z,4.73
2018-05-10T21:59:19.217Z,6.83
2018-05-10T22:01:47.296Z,5.70
2018-05-10T22:04:16.251Z,6.10
2018-05-10T22:06:44.366Z,6.57
2018-05-10T22:09:12.912Z,7.00
2018-05-10T22:11:41.773Z,4.50
2018-05-10T22:14:09.817Z,6.70
2018-05-10T22:16:38.368Z,5.63
2018-05-10T22:19:06.421Z,6.33
2018-05-10T22:21:34.505Z,9.10
2018-05-10T22:24:02.889Z,5.87
2018-05-10T22:26:31.712Z,4.97
2018-05-10T22:29:00.580Z,10.17
2018-05-10T22:31:29.981Z,4.93
2018-05-10T22:33:58.053Z,5.87
2018-05-10T22:36:26.113Z,5.70
2018-05-10T22:38:54.213Z,6.07
2018-05-10T22:41:23.208Z,6.73
2018-05-10T22:43:51.260Z,7.83
2018-05-10T22:46:20.449Z,6.53
2018-05-10T22:48:48.503Z,5.10
2018-05-10T22:51:16.561Z,6.07
2018-05-10T22:53:44.720Z,6.13
2018-05-10T22:56:12.791Z,4.37
2018-05-10T22:58:40.837Z,4.53
2018-05-10T23:01:09.194Z,4.97
2018-05-10T23:03:37.269Z,8.53
2018-05-10T23:06:06.388Z,6.83
2018-05-10T23:08:34.737Z,5.53
2018-05-10T23:11:02.800Z,7.70
2018-05-10T23:13:30.884Z,7.30
2018-05-10T23:15:59.334Z,11.33
2018-05-10T23:18:27.421Z,7.33
2018-05-10T23:20:55.460Z,5.20
2018-05-10T23:23:23.829Z,6.07
2018-05-10T23:25:51.913Z,6.73
2018-05-10T23:28:20.002Z,8.37
2018-05-10T23:30:48.397Z,6.30
2018-05-10T23:33:16.443Z,7.13
2018-05-10T23:35:44.542Z,6.47
2018-05-10T23:38:12.597Z,6.13
2018-05-10T23:40:40.674Z,5.33
2018-05-10T23:43:08.717Z,5.83
2018-05-10T23:45:37.097Z,7.07
2018-05-10T23:48:05.157Z,7.17
2018-05-10T23:50:33.225Z,5.73
2018-05-10T23:53:01.617Z,5.53
2018-05-10T23:55:29.905Z,7.40
2018-05-10T23:57:57.965Z,6.50
